To NAV CANADA Home Page Login to a new session Search on AWWS site Feedback and Comments Disclaimer Vers la page française équivalente Tips FAQ What's new on the site To the Forecasts and Observations / NOTAM section To "File a Flight Plan" website Publications and other links Update of the User's profile FIC Telephone Numbers My Weather Data Folder Route Weather Data Regional Weather Data Local Weather Data To the Forecasts and Observations / NOTAM section
Request Generated 12/10/2016 at 16:32:08 UTC . Weather information available at that time is displayed.

METAR/TAF

MONTREAL INTL (MIRABEL)/QC    

METAR CYMX 101600Z 28004KT 220V290 45SM VCSH FEW015 BKN050 BKN140
M06/M12 A3032 RMK CF1SC5AC1 CF TR SLP275=
METAR CYMX 101500Z 24005KT 220V300 45SM FEW015 BKN048 OVC100 M07/M12
A3034 RMK CF1SC7AC1 CF TR VIRGA SLP282=
METAR CYMX 101400Z 25003KT 200V280 45SM FEW015 BKN046 BKN150 BKN220
M08/M13 A3033 RMK CF1SC5AC1CI1 CF TR VIRGA SLP279=

TAF CYMX 101144Z 1012/1112 27005KT P6SM BKN040 OVC120 TEMPO 1017/1023
6SM -SHSN
FM110200 23005KT P6SM SCT030 BKN100
FM110500 20003KT P6SM FEW080
RMK NXT FCST BY 101800Z=
Your time UTC time
Weather data provided by Environment Canada and NAV CANADA